Captiva — WDF3796 — position and weather

sailwx.info

Track history (hours):
 
Tides and Currents Weather Stations Pressure Air Temp Water Temp Dewpoint Dewpoint Depression Visibility Wind Speed Wind Dir Waves Ship Positions

Captiva

Owner: Callahan, Michael F, Swampscott, MA. More information available from US FCC via Universal Licensing System and Coast Guard Vessel Documentation Center.

Last reported at 2017-Feb-09 18:19 UTC. Time now 2017-Feb-19 14:38 UTC.
Position N 16°30' W 062°01'.
Warning: this ship's position is 9 days out of date.

Length 15 m.

Type: Sailing vessel. MMSI: 367444090.

Date/timePositionNaut miles runAvg speedWind from/ knotsBaromVisibWave heightAir tempDewpointWater temp
2017-Feb-09 18:19N 16°30' W 062°01'5 7.0
2017-Feb-09 17:33N 16°34' W 062°05'6 6.4
2017-Feb-09 16:33N 16°38' W 062°10'9 6.3
2017-Feb-09 15:05N 16°44' W 062°17'4 7.5
2017-Feb-09 14:33N 16°47' W 062°20'  
2017-Feb-06 16:31N 17°52' W 063°02'6 6.1
2017-Feb-06 15:32N 17°58' W 063°04'5 4.6
2017-Feb-06 14:32N 18°02' W 063°06'0 0.3
2017-Feb-06 13:33N 18°02' W 063°05'0 0.0
2017-Feb-06 12:33N 18°02' W 063°05'0 0.0
2017-Feb-06 11:33N 18°02' W 063°05'0 0.0
2017-Feb-06 10:33N 18°02' W 063°05'0 0.0
2017-Feb-06 09:33N 18°02' W 063°05'0 0.0
2017-Feb-06 08:33N 18°02' W 063°05'0 0.0
2017-Feb-06 07:27N 18°02' W 063°05'0 0.0
2017-Feb-06 06:27N 18°02' W 063°05'0 0.0
2017-Feb-06 05:24N 18°02' W 063°05'0 0.0
2017-Feb-06 04:30N 18°02' W 063°05'0 0.0
2017-Feb-06 03:30N 18°02' W 063°05'0 0.0
2017-Feb-06 02:30N 18°02' W 063°05'0 0.0
2017-Feb-06 01:33N 18°02' W 063°05'0 0.0
2017-Feb-06 00:33N 18°02' W 063°05'0 0.0
2017-Feb-05 23:33N 18°02' W 063°05'0 0.0
2017-Feb-05 22:30N 18°02' W 063°05'0 0.0
2017-Feb-05 21:33N 18°02' W 063°05'0 0.0
2017-Feb-05 20:33N 18°02' W 063°05'0 0.0
2017-Feb-05 19:33N 18°02' W 063°05'0 0.0
2017-Feb-05 18:21N 18°02' W 063°05'0 0.0
2017-Feb-05 17:27N 18°02' W 063°05'0 0.0
2017-Feb-05 16:27N 18°02' W 063°05'0 0.0
2017-Feb-05 15:27N 18°02' W 063°05'0 0.0
2017-Feb-05 14:32N 18°02' W 063°05'0 0.0
2017-Feb-05 13:28N 18°02' W 063°05'0 0.0
2017-Feb-05 12:28N 18°02' W 063°05'0 0.0
2017-Feb-05 11:31N 18°02' W 063°05'0 0.0
2017-Feb-05 10:32N 18°02' W 063°05'0 0.0
2017-Feb-05 09:31N 18°02' W 063°05'0 0.0
2017-Feb-05 08:31N 18°02' W 063°05'0 0.0
2017-Feb-05 07:31N 18°02' W 063°05'0 0.0
2017-Feb-05 06:16N 18°02' W 063°05'0 0.0
2017-Feb-05 05:31N 18°02' W 063°05'0 0.0
2017-Feb-05 04:22N 18°02' W 063°05'0 0.0
2017-Feb-05 03:25N 18°02' W 063°05'0 0.0
2017-Feb-05 02:22N 18°02' W 063°05'0 0.0
2017-Feb-05 01:26N 18°02' W 063°05'0 0.0
2017-Feb-05 00:28N 18°02' W 063°05'0 0.0
2017-Feb-04 23:28N 18°02' W 063°05'0 0.0
2017-Feb-04 22:28N 18°02' W 063°05'0 0.0
2017-Feb-04 21:33N 18°02' W 063°05'0 0.0
2017-Feb-04 20:33N 18°02' W 063°05'0 0.0
2017-Feb-04 19:30N 18°02' W 063°05'0 0.0
2017-Feb-04 18:33N 18°02' W 063°05'0 0.0
2017-Feb-04 17:33N 18°02' W 063°05'0 0.0
2017-Feb-04 16:33N 18°02' W 063°05'0 0.0
2017-Feb-04 15:33N 18°02' W 063°05'0 0.0
2017-Feb-04 14:24N 18°02' W 063°05'0 0.0
2017-Feb-04 13:27N 18°02' W 063°05'0 0.0
2017-Feb-04 12:27N 18°02' W 063°05'0 0.0
2017-Feb-04 11:24N 18°02' W 063°05'0 0.0
2017-Feb-04 10:30N 18°02' W 063°05'0 0.0
2017-Feb-04 09:30N 18°02' W 063°05'0 0.0
2017-Feb-04 08:33N 18°02' W 063°05'0 0.0
2017-Feb-04 07:30N 18°02' W 063°05'0 0.0
2017-Feb-04 06:30N 18°02' W 063°05'0 0.0
2017-Feb-04 05:33N 18°02' W 063°05'0 0.0
2017-Feb-04 04:21N 18°02' W 063°05'0 0.0
2017-Feb-04 03:33N 18°02' W 063°05'0 0.0
2017-Feb-04 02:33N 18°02' W 063°05'0 0.0
2017-Feb-04 01:24N 18°02' W 063°05'0 0.0
2017-Feb-04 00:27N 18°02' W 063°05'0 0.0
2017-Feb-03 23:27N 18°02' W 063°05'0 0.0
2017-Feb-03 22:27N 18°02' W 063°05'0 0.0
2017-Feb-03 21:30N 18°02' W 063°05'0 0.0
2017-Feb-03 20:30N 18°02' W 063°05'0 0.0
2017-Feb-03 18:33N 18°02' W 063°05'0 0.0
2017-Feb-03 17:33N 18°02' W 063°05'0 0.0
2017-Feb-03 16:33N 18°02' W 063°05'0 0.0
2017-Feb-03 15:30N 18°02' W 063°05'0 0.0
2017-Feb-03 14:33N 18°02' W 063°05'0 0.0
2017-Feb-03 13:33N 18°02' W 063°05'0 0.0
2017-Feb-03 12:33N 18°02' W 063°05'0 0.0
2017-Feb-03 11:12N 18°02' W 063°05'0 0.0
2017-Feb-03 10:27N 18°02' W 063°05'0 0.0
2017-Feb-03 09:27N 18°02' W 063°05'0 0.0
2017-Feb-03 08:27N 18°02' W 063°05'0 0.0
2017-Feb-03 07:15N 18°02' W 063°05'0 0.0
2017-Feb-03 06:30N 18°02' W 063°05'0 0.0
2017-Feb-03 05:30N 18°02' W 063°05'0 0.0
2017-Feb-03 04:33N 18°02' W 063°05'0 0.0
2017-Feb-03 03:30N 18°02' W 063°05'0 0.0
2017-Feb-03 02:33N 18°02' W 063°05'0 0.0
2017-Feb-03 01:33N 18°02' W 063°05'0 0.0
2017-Feb-03 00:33N 18°02' W 063°05'0 0.0
2017-Feb-02 23:24N 18°02' W 063°05'0 0.0
2017-Feb-02 22:24N 18°02' W 063°05'0 0.0
2017-Feb-02 21:21N 18°02' W 063°05'0 0.0
2017-Feb-02 20:24N 18°02' W 063°05'0 0.0
2017-Feb-02 19:27N 18°02' W 063°05'0 0.0
2017-Feb-02 18:30N 18°02' W 063°05'0 0.0
2017-Feb-02 17:30N 18°02' W 063°05'0 0.0
2017-Feb-02 16:30N 18°02' W 063°05'0 0.0
2017-Feb-02 15:33N 18°02' W 063°05'0 0.0
2017-Feb-02 14:30N 18°02' W 063°05'0 0.0
2017-Feb-02 13:33N 18°02' W 063°05'0 0.0
2017-Feb-02 12:30N 18°02' W 063°05'0 0.0
2017-Feb-02 11:33N 18°02' W 063°05'0 0.0
2017-Feb-02 10:33N 18°02' W 063°05'0 0.0
2017-Feb-02 09:33N 18°02' W 063°05'0 0.0
2017-Feb-02 08:24N 18°02' W 063°05'0 0.0
2017-Feb-02 07:27N 18°02' W 063°05'0 0.0
2017-Feb-02 06:24N 18°02' W 063°05'0 0.0
2017-Feb-02 05:27N 18°02' W 063°05'0 0.0
2017-Feb-02 04:27N 18°02' W 063°05'0 0.0
2017-Feb-02 03:30N 18°02' W 063°05'0 0.0
2017-Feb-02 02:27N 18°02' W 063°05'0 0.0
2017-Feb-02 01:33N 18°02' W 063°05'0 0.0
2017-Feb-02 00:33N 18°02' W 063°05'0 0.0
2017-Feb-01 23:30N 18°02' W 063°05'0 0.0
2017-Feb-01 22:21N 18°02' W 063°05'0 0.0
2017-Feb-01 21:18N 18°02' W 063°05'0 0.0
2017-Feb-01 20:33N 18°02' W 063°05'0 0.0
2017-Feb-01 19:24N 18°02' W 063°05'0 0.0
2017-Feb-01 17:12N 18°02' W 063°05'0 0.0
2017-Feb-01 16:27N 18°02' W 063°05'0 0.0
2017-Feb-01 15:27N 18°02' W 063°05'0 0.0
2017-Feb-01 14:30N 18°02' W 063°05'0 0.0
2017-Feb-01 12:30N 18°02' W 063°05'0 0.0
2017-Feb-01 11:33N 18°02' W 063°05'0 0.0
2017-Feb-01 10:33N 18°02' W 063°05'0 0.0
2017-Feb-01 09:30N 18°02' W 063°05'0 0.0
2017-Feb-01 08:21N 18°02' W 063°05'0 0.0
2017-Feb-01 07:33N 18°02' W 063°05'0 0.0
2017-Feb-01 06:33N 18°02' W 063°05'0 0.0
2017-Feb-01 05:24N 18°02' W 063°05'0 0.0
2017-Feb-01 04:24N 18°02' W 063°05'0 0.0
2017-Feb-01 03:27N 18°02' W 063°05'0 0.0
2017-Feb-01 02:27N 18°02' W 063°05'0 0.0
2017-Feb-01 01:30N 18°02' W 063°05'0 0.0
2017-Feb-01 00:30N 18°02' W 063°05'0 0.0
2017-Jan-31 23:30N 18°02' W 063°05'0 0.0
2017-Jan-31 22:30N 18°02' W 063°05'0 0.0
2017-Jan-31 21:33N 18°02' W 063°05'0 0.0
2017-Jan-31 20:33N 18°02' W 063°05'0 0.0
2017-Jan-31 19:33N 18°02' W 063°05'0 0.0
2017-Jan-31 18:33N 18°02' W 063°05'0 0.0
2017-Jan-31 17:33N 18°02' W 063°05'0 0.0
2017-Jan-31 16:33N 18°02' W 063°05'0 0.0
2017-Jan-31 15:24N 18°02' W 063°05'0 0.0
2017-Jan-31 14:24N 18°02' W 063°05'0 0.0
2017-Jan-31 13:27N 18°02' W 063°05'0 0.0
2017-Jan-31 12:27N 18°02' W 063°05'0 0.0
2017-Jan-31 11:30N 18°02' W 063°05'0 0.0
2017-Jan-31 10:30N 18°02' W 063°05'0 0.0
2017-Jan-31 09:30N 18°02' W 063°05'0 0.0
2017-Jan-31 08:33N 18°02' W 063°05'0 0.0
2017-Jan-31 07:33N 18°02' W 063°05'0 0.0
2017-Jan-31 06:33N 18°02' W 063°05'0 0.0
2017-Jan-31 05:30N 18°02' W 063°05'0 0.0
2017-Jan-31 04:33N 18°02' W 063°05'0 0.0
2017-Jan-31 03:33N 18°02' W 063°05'0 0.0
2017-Jan-31 02:24N 18°02' W 063°05'0 0.0
2017-Jan-31 01:21N 18°02' W 063°05'0 0.0
2017-Jan-31 00:27N 18°02' W 063°05'0 0.0
2017-Jan-30 23:24N 18°02' W 063°05'0 0.0
2017-Jan-30 22:30N 18°02' W 063°05'0 0.0
2017-Jan-30 21:15N 18°02' W 063°05'0 0.0
2017-Jan-30 20:30N 18°02' W 063°05'0 0.0
2017-Jan-30 19:33N 18°02' W 063°05'0 0.0
2017-Jan-30 18:33N 18°02' W 063°05'  
Track history (hours):
 
Tides and Currents Weather Stations Pressure Air Temp Water Temp Dewpoint Dewpoint Depression Visibility Wind Speed Wind Dir Waves Ship Positions

Captiva

Owner: Callahan, Michael F, Swampscott, MA. More information available from US FCC via Universal Licensing System and Coast Guard Vessel Documentation Center.

Last reported at 2017-Feb-09 18:19 UTC. Time now 2017-Feb-19 14:38 UTC.
Position N 16°30' W 062°01'.
Warning: this ship's position is 9 days out of date.

Length 15 m.

Type: Sailing vessel. MMSI: 367444090.

Date/timePositionNaut miles runAvg speedWind from/ knotsBaromVisibWave heightAir tempDewpointWater temp
2017-Feb-09 18:19N 16°30' W 062°01'5 7.0
2017-Feb-09 17:33N 16°34' W 062°05'6 6.4
2017-Feb-09 16:33N 16°38' W 062°10'9 6.3
2017-Feb-09 15:05N 16°44' W 062°17'4 7.5
2017-Feb-09 14:33N 16°47' W 062°20'  
2017-Feb-06 16:31N 17°52' W 063°02'6 6.1
2017-Feb-06 15:32N 17°58' W 063°04'5 4.6
2017-Feb-06 14:32N 18°02' W 063°06'0 0.3
2017-Feb-06 13:33N 18°02' W 063°05'0 0.0
2017-Feb-06 12:33N 18°02' W 063°05'0 0.0
2017-Feb-06 11:33N 18°02' W 063°05'0 0.0
2017-Feb-06 10:33N 18°02' W 063°05'0 0.0
2017-Feb-06 09:33N 18°02' W 063°05'0 0.0
2017-Feb-06 08:33N 18°02' W 063°05'0 0.0
2017-Feb-06 07:27N 18°02' W 063°05'0 0.0
2017-Feb-06 06:27N 18°02' W 063°05'0 0.0
2017-Feb-06 05:24N 18°02' W 063°05'0 0.0
2017-Feb-06 04:30N 18°02' W 063°05'0 0.0
2017-Feb-06 03:30N 18°02' W 063°05'0 0.0
2017-Feb-06 02:30N 18°02' W 063°05'0 0.0
2017-Feb-06 01:33N 18°02' W 063°05'0 0.0
2017-Feb-06 00:33N 18°02' W 063°05'0 0.0
2017-Feb-05 23:33N 18°02' W 063°05'0 0.0
2017-Feb-05 22:30N 18°02' W 063°05'0 0.0
2017-Feb-05 21:33N 18°02' W 063°05'0 0.0
2017-Feb-05 20:33N 18°02' W 063°05'0 0.0
2017-Feb-05 19:33N 18°02' W 063°05'0 0.0
2017-Feb-05 18:21N 18°02' W 063°05'0 0.0
2017-Feb-05 17:27N 18°02' W 063°05'0 0.0
2017-Feb-05 16:27N 18°02' W 063°05'0 0.0
2017-Feb-05 15:27N 18°02' W 063°05'0 0.0
2017-Feb-05 14:32N 18°02' W 063°05'0 0.0
2017-Feb-05 13:28N 18°02' W 063°05'0 0.0
2017-Feb-05 12:28N 18°02' W 063°05'0 0.0
2017-Feb-05 11:31N 18°02' W 063°05'0 0.0
2017-Feb-05 10:32N 18°02' W 063°05'0 0.0
2017-Feb-05 09:31N 18°02' W 063°05'0 0.0
2017-Feb-05 08:31N 18°02' W 063°05'0 0.0
2017-Feb-05 07:31N 18°02' W 063°05'0 0.0
2017-Feb-05 06:16N 18°02' W 063°05'0 0.0
2017-Feb-05 05:31N 18°02' W 063°05'0 0.0
2017-Feb-05 04:22N 18°02' W 063°05'0 0.0
2017-Feb-05 03:25N 18°02' W 063°05'0 0.0
2017-Feb-05 02:22N 18°02' W 063°05'0 0.0
2017-Feb-05 01:26N 18°02' W 063°05'0 0.0
2017-Feb-05 00:28N 18°02' W 063°05'0 0.0
2017-Feb-04 23:28N 18°02' W 063°05'0 0.0
2017-Feb-04 22:28N 18°02' W 063°05'0 0.0
2017-Feb-04 21:33N 18°02' W 063°05'0 0.0
2017-Feb-04 20:33N 18°02' W 063°05'0 0.0
2017-Feb-04 19:30N 18°02' W 063°05'0 0.0
2017-Feb-04 18:33N 18°02' W 063°05'0 0.0
2017-Feb-04 17:33N 18°02' W 063°05'0 0.0
2017-Feb-04 16:33N 18°02' W 063°05'0 0.0
2017-Feb-04 15:33N 18°02' W 063°05'0 0.0
2017-Feb-04 14:24N 18°02' W 063°05'0 0.0
2017-Feb-04 13:27N 18°02' W 063°05'0 0.0
2017-Feb-04 12:27N 18°02' W 063°05'0 0.0
2017-Feb-04 11:24N 18°02' W 063°05'0 0.0
2017-Feb-04 10:30N 18°02' W 063°05'0 0.0
2017-Feb-04 09:30N 18°02' W 063°05'0 0.0
2017-Feb-04 08:33N 18°02' W 063°05'0 0.0
2017-Feb-04 07:30N 18°02' W 063°05'0 0.0
2017-Feb-04 06:30N 18°02' W 063°05'0 0.0
2017-Feb-04 05:33N 18°02' W 063°05'0 0.0
2017-Feb-04 04:21N 18°02' W 063°05'0 0.0
2017-Feb-04 03:33N 18°02' W 063°05'0 0.0
2017-Feb-04 02:33N 18°02' W 063°05'0 0.0
2017-Feb-04 01:24N 18°02' W 063°05'0 0.0
2017-Feb-04 00:27N 18°02' W 063°05'0 0.0
2017-Feb-03 23:27N 18°02' W 063°05'0 0.0
2017-Feb-03 22:27N 18°02' W 063°05'0 0.0
2017-Feb-03 21:30N 18°02' W 063°05'0 0.0
2017-Feb-03 20:30N 18°02' W 063°05'0 0.0
2017-Feb-03 18:33N 18°02' W 063°05'0 0.0
2017-Feb-03 17:33N 18°02' W 063°05'0 0.0
2017-Feb-03 16:33N 18°02' W 063°05'0 0.0
2017-Feb-03 15:30N 18°02' W 063°05'0 0.0
2017-Feb-03 14:33N 18°02' W 063°05'0 0.0
2017-Feb-03 13:33N 18°02' W 063°05'0 0.0
2017-Feb-03 12:33N 18°02' W 063°05'0 0.0
2017-Feb-03 11:12N 18°02' W 063°05'0 0.0
2017-Feb-03 10:27N 18°02' W 063°05'0 0.0
2017-Feb-03 09:27N 18°02' W 063°05'0 0.0
2017-Feb-03 08:27N 18°02' W 063°05'0 0.0
2017-Feb-03 07:15N 18°02' W 063°05'0 0.0
2017-Feb-03 06:30N 18°02' W 063°05'0 0.0
2017-Feb-03 05:30N 18°02' W 063°05'0 0.0
2017-Feb-03 04:33N 18°02' W 063°05'0 0.0
2017-Feb-03 03:30N 18°02' W 063°05'0 0.0
2017-Feb-03 02:33N 18°02' W 063°05'0 0.0
2017-Feb-03 01:33N 18°02' W 063°05'0 0.0
2017-Feb-03 00:33N 18°02' W 063°05'0 0.0
2017-Feb-02 23:24N 18°02' W 063°05'0 0.0
2017-Feb-02 22:24N 18°02' W 063°05'0 0.0
2017-Feb-02 21:21N 18°02' W 063°05'0 0.0
2017-Feb-02 20:24N 18°02' W 063°05'0 0.0
2017-Feb-02 19:27N 18°02' W 063°05'0 0.0
2017-Feb-02 18:30N 18°02' W 063°05'0 0.0
2017-Feb-02 17:30N 18°02' W 063°05'0 0.0
2017-Feb-02 16:30N 18°02' W 063°05'0 0.0
2017-Feb-02 15:33N 18°02' W 063°05'0 0.0
2017-Feb-02 14:30N 18°02' W 063°05'0 0.0
2017-Feb-02 13:33N 18°02' W 063°05'0 0.0
2017-Feb-02 12:30N 18°02' W 063°05'0 0.0
2017-Feb-02 11:33N 18°02' W 063°05'0 0.0
2017-Feb-02 10:33N 18°02' W 063°05'0 0.0
2017-Feb-02 09:33N 18°02' W 063°05'0 0.0
2017-Feb-02 08:24N 18°02' W 063°05'0 0.0
2017-Feb-02 07:27N 18°02' W 063°05'0 0.0
2017-Feb-02 06:24N 18°02' W 063°05'0 0.0
2017-Feb-02 05:27N 18°02' W 063°05'0 0.0
2017-Feb-02 04:27N 18°02' W 063°05'0 0.0
2017-Feb-02 03:30N 18°02' W 063°05'0 0.0
2017-Feb-02 02:27N 18°02' W 063°05'0 0.0
2017-Feb-02 01:33N 18°02' W 063°05'0 0.0
2017-Feb-02 00:33N 18°02' W 063°05'0 0.0
2017-Feb-01 23:30N 18°02' W 063°05'0 0.0
2017-Feb-01 22:21N 18°02' W 063°05'0 0.0
2017-Feb-01 21:18N 18°02' W 063°05'0 0.0
2017-Feb-01 20:33N 18°02' W 063°05'0 0.0
2017-Feb-01 19:24N 18°02' W 063°05'0 0.0
2017-Feb-01 17:12N 18°02' W 063°05'0 0.0
2017-Feb-01 16:27N 18°02' W 063°05'0 0.0
2017-Feb-01 15:27N 18°02' W 063°05'0 0.0
2017-Feb-01 14:30N 18°02' W 063°05'0 0.0
2017-Feb-01 12:30N 18°02' W 063°05'0 0.0
2017-Feb-01 11:33N 18°02' W 063°05'0 0.0
2017-Feb-01 10:33N 18°02' W 063°05'0 0.0
2017-Feb-01 09:30N 18°02' W 063°05'0 0.0
2017-Feb-01 08:21N 18°02' W 063°05'0 0.0
2017-Feb-01 07:33N 18°02' W 063°05'0 0.0
2017-Feb-01 06:33N 18°02' W 063°05'0 0.0
2017-Feb-01 05:24N 18°02' W 063°05'0 0.0
2017-Feb-01 04:24N 18°02' W 063°05'0 0.0
2017-Feb-01 03:27N 18°02' W 063°05'0 0.0
2017-Feb-01 02:27N 18°02' W 063°05'0 0.0
2017-Feb-01 01:30N 18°02' W 063°05'0 0.0
2017-Feb-01 00:30N 18°02' W 063°05'0 0.0
2017-Jan-31 23:30N 18°02' W 063°05'0 0.0
2017-Jan-31 22:30N 18°02' W 063°05'0 0.0
2017-Jan-31 21:33N 18°02' W 063°05'0 0.0
2017-Jan-31 20:33N 18°02' W 063°05'0 0.0
2017-Jan-31 19:33N 18°02' W 063°05'0 0.0
2017-Jan-31 18:33N 18°02' W 063°05'0 0.0
2017-Jan-31 17:33N 18°02' W 063°05'0 0.0
2017-Jan-31 16:33N 18°02' W 063°05'0 0.0
2017-Jan-31 15:24N 18°02' W 063°05'0 0.0
2017-Jan-31 14:24N 18°02' W 063°05'0 0.0
2017-Jan-31 13:27N 18°02' W 063°05'0 0.0
2017-Jan-31 12:27N 18°02' W 063°05'0 0.0
2017-Jan-31 11:30N 18°02' W 063°05'0 0.0
2017-Jan-31 10:30N 18°02' W 063°05'0 0.0
2017-Jan-31 09:30N 18°02' W 063°05'0 0.0
2017-Jan-31 08:33N 18°02' W 063°05'0 0.0
2017-Jan-31 07:33N 18°02' W 063°05'0 0.0
2017-Jan-31 06:33N 18°02' W 063°05'0 0.0
2017-Jan-31 05:30N 18°02' W 063°05'0 0.0
2017-Jan-31 04:33N 18°02' W 063°05'0 0.0
2017-Jan-31 03:33N 18°02' W 063°05'0 0.0
2017-Jan-31 02:24N 18°02' W 063°05'0 0.0
2017-Jan-31 01:21N 18°02' W 063°05'0 0.0
2017-Jan-31 00:27N 18°02' W 063°05'0 0.0
2017-Jan-30 23:24N 18°02' W 063°05'0 0.0
2017-Jan-30 22:30N 18°02' W 063°05'0 0.0
2017-Jan-30 21:15N 18°02' W 063°05'0 0.0
2017-Jan-30 20:30N 18°02' W 063°05'0 0.0
2017-Jan-30 19:33N 18°02' W 063°05'0 0.0
2017-Jan-30 18:33N 18°02' W 063°05'  

Dump ship's entire track history